Naniwa Maru No.21 — JG5648 — position and weather

sailwx.info

Track history (hours):
 
Tides and Currents Weather Stations Pressure Air Temp Water Temp Dewpoint Dewpoint Depression Visibility Wind Speed Wind Dir Waves Ship Positions

Naniwa Maru No.21

Last reported at 2014-Nov-01 03:31 UTC. Time now 2014-Nov-01 04:05 UTC.
Position N 34°07' E 135°08'.

Length 71 m; draft 4 m.

Type: Tanker. MMSI: 431301595.

Date/timePositionNaut miles runAvg speedWind from/ knotsBaromVisibWave heightAir tempDewpointWater temp
2014-Nov-01 03:31N 34°07' E 135°08'3 3.6
2014-Nov-01 02:33N 34°07' E 135°03'  
2014-Oct-29 08:10N 34°07' E 135°04'3 5.2
2014-Oct-29 07:33N 34°07' E 135°07'0 0.0
2014-Oct-29 06:32N 34°07' E 135°07'0 0.0
2014-Oct-29 05:20N 34°07' E 135°07'0 0.0
2014-Oct-29 04:33N 34°07' E 135°07'3 3.4
2014-Oct-29 03:33N 34°10' E 135°05'1410.6
2014-Oct-29 02:15N 34°23' E 135°03'1013.5
2014-Oct-29 01:31N 34°29' E 135°12'10 9.7
2014-Oct-29 00:31N 34°34' E 135°22'4 4.2
2014-Oct-28 23:33N 34°35' E 135°27'0 0.0
2014-Oct-28 22:31N 34°35' E 135°27'0 0.0
2014-Oct-28 21:31N 34°35' E 135°27'0 0.0
2014-Oct-28 20:31N 34°35' E 135°27'0 0.0
2014-Oct-28 19:25N 34°35' E 135°27'0 0.0
2014-Oct-28 18:31N 34°35' E 135°27'0 0.0
2014-Oct-28 17:25N 34°35' E 135°27'0 0.0
2014-Oct-28 16:31N 34°35' E 135°27'0 0.0
2014-Oct-28 15:19N 34°35' E 135°27'0 0.0
2014-Oct-28 14:25N 34°35' E 135°27'0 0.0
2014-Oct-28 13:31N 34°35' E 135°27'0 0.0
2014-Oct-28 12:31N 34°35' E 135°27'0 0.0
2014-Oct-28 11:31N 34°35' E 135°27'0 0.0
2014-Oct-28 10:25N 34°35' E 135°27'0 0.0
2014-Oct-28 09:31N 34°35' E 135°27'0 0.0
2014-Oct-28 08:25N 34°35' E 135°27'0 0.0
2014-Oct-28 06:19N 34°35' E 135°27'0 0.0
2014-Oct-28 05:31N 34°35' E 135°27'0 0.0
2014-Oct-28 04:31N 34°35' E 135°27'0 0.0
2014-Oct-28 02:07N 34°35' E 135°27'0 0.0
2014-Oct-28 01:31N 34°35' E 135°27'0 0.0
2014-Oct-28 00:31N 34°35' E 135°27'4 3.9
2014-Oct-27 23:33N 34°36' E 135°23'1414.0
2014-Oct-27 22:33N 34°35' E 135°06'  
Track history (hours):
 
Tides and Currents Weather Stations Pressure Air Temp Water Temp Dewpoint Dewpoint Depression Visibility Wind Speed Wind Dir Waves Ship Positions

Naniwa Maru No.21

Last reported at 2014-Nov-01 03:31 UTC. Time now 2014-Nov-01 04:05 UTC.
Position N 34°07' E 135°08'.

Length 71 m; draft 4 m.

Type: Tanker. MMSI: 431301595.

Date/timePositionNaut miles runAvg speedWind from/ knotsBaromVisibWave heightAir tempDewpointWater temp
2014-Nov-01 03:31N 34°07' E 135°08'3 3.6
2014-Nov-01 02:33N 34°07' E 135°03'  
2014-Oct-29 08:10N 34°07' E 135°04'3 5.2
2014-Oct-29 07:33N 34°07' E 135°07'0 0.0
2014-Oct-29 06:32N 34°07' E 135°07'0 0.0
2014-Oct-29 05:20N 34°07' E 135°07'0 0.0
2014-Oct-29 04:33N 34°07' E 135°07'3 3.4
2014-Oct-29 03:33N 34°10' E 135°05'1410.6
2014-Oct-29 02:15N 34°23' E 135°03'1013.5
2014-Oct-29 01:31N 34°29' E 135°12'10 9.7
2014-Oct-29 00:31N 34°34' E 135°22'4 4.2
2014-Oct-28 23:33N 34°35' E 135°27'0 0.0
2014-Oct-28 22:31N 34°35' E 135°27'0 0.0
2014-Oct-28 21:31N 34°35' E 135°27'0 0.0
2014-Oct-28 20:31N 34°35' E 135°27'0 0.0
2014-Oct-28 19:25N 34°35' E 135°27'0 0.0
2014-Oct-28 18:31N 34°35' E 135°27'0 0.0
2014-Oct-28 17:25N 34°35' E 135°27'0 0.0
2014-Oct-28 16:31N 34°35' E 135°27'0 0.0
2014-Oct-28 15:19N 34°35' E 135°27'0 0.0
2014-Oct-28 14:25N 34°35' E 135°27'0 0.0
2014-Oct-28 13:31N 34°35' E 135°27'0 0.0
2014-Oct-28 12:31N 34°35' E 135°27'0 0.0
2014-Oct-28 11:31N 34°35' E 135°27'0 0.0
2014-Oct-28 10:25N 34°35' E 135°27'0 0.0
2014-Oct-28 09:31N 34°35' E 135°27'0 0.0
2014-Oct-28 08:25N 34°35' E 135°27'0 0.0
2014-Oct-28 06:19N 34°35' E 135°27'0 0.0
2014-Oct-28 05:31N 34°35' E 135°27'0 0.0
2014-Oct-28 04:31N 34°35' E 135°27'0 0.0
2014-Oct-28 02:07N 34°35' E 135°27'0 0.0
2014-Oct-28 01:31N 34°35' E 135°27'0 0.0
2014-Oct-28 00:31N 34°35' E 135°27'4 3.9
2014-Oct-27 23:33N 34°36' E 135°23'1414.0
2014-Oct-27 22:33N 34°35' E 135°06'  

Dump ship's entire track history